메인 페이지
METAR-TAF:

METAR-TAF

공항 :

포트오브스페인, 트리니다드 섬, 트리니다드 토바고

위도: 10-37N, 경도: 061-21W, 고도: 12m

현재 날씨관측

예보는 11분 전, 19:00시(UTC)에 발표되었습니다.
12kt
온도 30°C
습도 62%
기압 1013 hPa
시정 10km 이상
고도 2000ft 상공 구름 조금
시계 내 소나기

METAR: TTPP 191900Z 10012KT 9999 VCSH FEW020 30/22 Q1013 NOSIG RMK VCSH NE

시각: 15:11 (19:11 UTC)

예보

예보는 3 시간 11분 전, 16:00시(UTC)에 발표되었습니다.
예보 대상 시간: 19일 18시부터 20일 18시까지 (UTC)
동남동12kt
시정 10km 이상
고도 1800ft 상공 구름 조금
전환 중
20일 00시부터 20일 02시까지 (UTC)
5kt
전환 중
20일 12시부터 20일 14시까지 (UTC)
12kt

TAF: TTPP 191600Z 1918/2018 11012KT 9999 FEW018 BECMG 2000/2002 10005KT BECMG 2012/2014 10012KT

4,000개 이상의 공항 관측 자료 및 예보 (METAR 및 TAF 보고).

지도상에서 검색 가능한 기상관측소가 노란 점과 빨간 점으로 표시되어 있습니다.

기상관측소 명을 보려면 표시 위로 마우스를 이동하세요.

날씨 관측과 예보를 보려면 클릭하세요.

지도 변경 : 확대하려면 엑스 표시가 있는 녹색 버튼, 축소하려면 빼기 표시가 있는 녹색 버튼, 다음 페이지의 지도를 보려면 녹색 화살표를 클릭하세요.


METAR-TAF: